sensor_id;sensor_type;location;lat;lon;timestamp;pressure;altitude;pressure_sealevel;temperature;humidity
23229;BME280;11783;50.350;6.576;2022-11-23T00:01:20;94494.63;;;5.50;100.00
23229;BME280;11783;50.350;6.576;2022-11-23T00:03:47;94489.78;;;5.36;100.00
23229;BME280;11783;50.350;6.576;2022-11-23T00:06:13;94486.69;;;5.44;100.00
23229;BME280;11783;50.350;6.576;2022-11-23T00:08:39;94491.13;;;5.39;100.00
23229;BME280;11783;50.350;6.576;2022-11-23T00:11:04;94487.75;;;5.43;100.00
23229;BME280;11783;50.350;6.576;2022-11-23T00:13:30;94493.56;;;5.45;100.00
23229;BME280;11783;50.350;6.576;2022-11-23T00:15:55;94491.75;;;5.51;100.00
23229;BME280;11783;50.350;6.576;2022-11-23T00:18:20;94493.03;;;5.48;100.00
23229;BME280;11783;50.350;6.576;2022-11-23T00:20:46;94490.91;;;5.45;100.00
23229;BME280;11783;50.350;6.576;2022-11-23T00:23:12;94484.84;;;5.45;100.00
23229;BME280;11783;50.350;6.576;2022-11-23T00:25:37;94495.16;;;5.46;100.00
23229;BME280;11783;50.350;6.576;2022-11-23T00:28:03;94492.25;;;5.48;100.00
23229;BME280;11783;50.350;6.576;2022-11-23T00:30:28;94488.28;;;5.45;100.00
23229;BME280;11783;50.350;6.576;2022-11-23T00:32:54;94494.31;;;5.41;100.00
23229;BME280;11783;50.350;6.576;2022-11-23T00:35:21;94498.22;;;5.38;100.00
23229;BME280;11783;50.350;6.576;2022-11-23T00:37:46;94501.44;;;5.40;100.00
23229;BME280;11783;50.350;6.576;2022-11-23T00:40:11;94501.47;;;5.45;100.00
23229;BME280;11783;50.350;6.576;2022-11-23T00:42:37;94511.50;;;5.48;100.00
23229;BME280;11783;50.350;6.576;2022-11-23T00:45:02;94499.91;;;5.50;100.00
23229;BME280;11783;50.350;6.576;2022-11-23T00:47:28;94502.03;;;5.53;100.00
23229;BME280;11783;50.350;6.576;2022-11-23T00:49:53;94505.19;;;5.55;100.00
23229;BME280;11783;50.350;6.576;2022-11-23T00:52:18;94504.38;;;5.49;100.00
23229;BME280;11783;50.350;6.576;2022-11-23T00:54:43;94502.81;;;5.53;100.00
23229;BME280;11783;50.350;6.576;2022-11-23T00:57:09;94500.97;;;5.54;100.00
23229;BME280;11783;50.350;6.576;2022-11-23T00:59:35;94509.16;;;5.57;100.00
23229;BME280;11783;50.350;6.576;2022-11-23T01:02:01;94505.72;;;5.52;100.00
23229;BME280;11783;50.350;6.576;2022-11-23T01:04:26;94507.03;;;5.54;100.00
23229;BME280;11783;50.350;6.576;2022-11-23T01:06:55;94506.22;;;5.48;100.00
23229;BME280;11783;50.350;6.576;2022-11-23T01:09:22;94497.81;;;5.52;100.00
23229;BME280;11783;50.350;6.576;2022-11-23T01:11:53;94497.28;;;5.50;100.00
23229;BME280;11783;50.350;6.576;2022-11-23T01:14:19;94503.91;;;5.57;100.00
23229;BME280;11783;50.350;6.576;2022-11-23T01:16:45;94503.06;;;5.52;100.00
23229;BME280;11783;50.350;6.576;2022-11-23T01:19:14;94506.00;;;5.55;100.00
23229;BME280;11783;50.350;6.576;2022-11-23T01:21:40;94508.63;;;5.55;100.00
23229;BME280;11783;50.350;6.576;2022-11-23T01:24:13;94515.47;;;5.51;100.00
23229;BME280;11783;50.350;6.576;2022-11-23T01:26:40;94508.31;;;5.46;100.00
23229;BME280;11783;50.350;6.576;2022-11-23T01:29:05;94511.22;;;5.50;100.00
23229;BME280;11783;50.350;6.576;2022-11-23T01:31:31;94507.84;;;5.55;100.00
23229;BME280;11783;50.350;6.576;2022-11-23T01:33:58;94516.00;;;5.53;100.00
23229;BME280;11783;50.350;6.576;2022-11-23T01:36:27;94519.69;;;5.52;100.00
23229;BME280;11783;50.350;6.576;2022-11-23T01:38:52;94519.69;;;5.52;100.00
23229;BME280;11783;50.350;6.576;2022-11-23T01:41:21;94523.38;;;5.51;100.00
23229;BME280;11783;50.350;6.576;2022-11-23T01:43:47;94527.56;;;5.47;100.00
23229;BME280;11783;50.350;6.576;2022-11-23T01:46:12;94530.94;;;5.42;100.00
23229;BME280;11783;50.350;6.576;2022-11-23T01:48:41;94529.72;;;5.55;100.00
23229;BME280;11783;50.350;6.576;2022-11-23T01:51:13;94534.72;;;5.57;100.00
23229;BME280;11783;50.350;6.576;2022-11-23T01:53:40;94534.97;;;5.55;100.00
23229;BME280;11783;50.350;6.576;2022-11-23T01:56:07;94528.91;;;5.55;100.00
23229;BME280;11783;50.350;6.576;2022-11-23T01:58:38;94530.97;;;5.47;100.00
23229;BME280;11783;50.350;6.576;2022-11-23T02:01:05;94540.72;;;5.47;100.00
23229;BME280;11783;50.350;6.576;2022-11-23T02:03:31;94535.38;;;5.37;100.00
23229;BME280;11783;50.350;6.576;2022-11-23T02:06:02;94545.66;;;5.38;100.00
23229;BME280;11783;50.350;6.576;2022-11-23T02:08:28;94544.31;;;5.36;100.00
23229;BME280;11783;50.350;6.576;2022-11-23T02:10:57;94545.38;;;5.35;100.00
23229;BME280;11783;50.350;6.576;2022-11-23T02:13:24;94542.47;;;5.36;100.00
23229;BME280;11783;50.350;6.576;2022-11-23T02:15:52;94548.28;;;5.38;100.00
23229;BME280;11783;50.350;6.576;2022-11-23T02:18:22;94552.81;;;5.43;100.00
23229;BME280;11783;50.350;6.576;2022-11-23T02:20:48;94539.94;;;5.46;100.00
23229;BME280;11783;50.350;6.576;2022-11-23T02:23:19;94539.72;;;5.53;100.00
23229;BME280;11783;50.350;6.576;2022-11-23T02:25:54;94536.25;;;5.47;100.00
23229;BME280;11783;50.350;6.576;2022-11-23T02:28:24;94545.97;;;5.42;100.00
23229;BME280;11783;50.350;6.576;2022-11-23T02:30:53;94547.81;;;5.41;100.00
23229;BME280;11783;50.350;6.576;2022-11-23T02:33:19;94546.94;;;5.36;100.00
23229;BME280;11783;50.350;6.576;2022-11-23T02:35:52;94539.59;;;5.38;100.00
23229;BME280;11783;50.350;6.576;2022-11-23T02:38:18;94546.16;;;5.35;100.00
23229;BME280;11783;50.350;6.576;2022-11-23T02:40:44;94537.75;;;5.38;100.00
23229;BME280;11783;50.350;6.576;2022-11-23T02:43:10;94537.72;;;5.33;100.00
23229;BME280;11783;50.350;6.576;2022-11-23T02:45:40;94537.75;;;5.38;100.00
23229;BME280;11783;50.350;6.576;2022-11-23T02:48:07;94539.91;;;5.41;100.00
23229;BME280;11783;50.350;6.576;2022-11-23T02:50:33;94557.28;;;5.42;100.00
23229;BME280;11783;50.350;6.576;2022-11-23T02:52:58;94544.03;;;5.32;100.00
23229;BME280;11783;50.350;6.576;2022-11-23T02:55:23;94552.22;;;5.36;100.00
23229;BME280;11783;50.350;6.576;2022-11-23T02:57:49;94549.25;;;5.27;100.00
23229;BME280;11783;50.350;6.576;2022-11-23T03:00:15;94541.41;;;5.32;100.00
23229;BME280;11783;50.350;6.576;2022-11-23T03:02:40;94541.69;;;5.36;100.00
23229;BME280;11783;50.350;6.576;2022-11-23T03:05:06;94542.44;;;5.31;100.00
23229;BME280;11783;50.350;6.576;2022-11-23T03:07:31;94544.00;;;5.27;100.00
23229;BME280;11783;50.350;6.576;2022-11-23T03:09:56;94540.03;;;5.25;100.00
23229;BME280;11783;50.350;6.576;2022-11-23T03:12:22;94539.00;;;5.31;100.00
23229;BME280;11783;50.350;6.576;2022-11-23T03:14:47;94533.78;;;5.36;100.00
23229;BME280;11783;50.350;6.576;2022-11-23T03:17:12;94540.53;;;5.22;100.00
23229;BME280;11783;50.350;6.576;2022-11-23T03:19:38;94541.00;;;5.18;100.00
23229;BME280;11783;50.350;6.576;2022-11-23T03:22:03;94536.34;;;5.26;100.00
23229;BME280;11783;50.350;6.576;2022-11-23T03:24:28;94543.75;;;5.29;100.00
23229;BME280;11783;50.350;6.576;2022-11-23T03:26:54;94547.72;;;5.31;100.00
23229;BME280;11783;50.350;6.576;2022-11-23T03:29:19;94550.09;;;5.33;100.00
23229;BME280;11783;50.350;6.576;2022-11-23T03:31:46;94553.44;;;5.23;100.00
23229;BME280;11783;50.350;6.576;2022-11-23T03:34:11;94542.81;;;5.13;100.00
23229;BME280;11783;50.350;6.576;2022-11-23T03:36:37;94539.97;;;5.20;100.00
23229;BME280;11783;50.350;6.576;2022-11-23T03:39:02;94546.63;;;5.27;100.00
23229;BME280;11783;50.350;6.576;2022-11-23T03:41:27;94541.88;;;5.24;100.00
23229;BME280;11783;50.350;6.576;2022-11-23T03:43:53;94548.75;;;5.30;100.00
23229;BME280;11783;50.350;6.576;2022-11-23T03:46:18;94548.78;;;5.35;100.00
23229;BME280;11783;50.350;6.576;2022-11-23T03:48:43;94552.19;;;5.31;100.00
23229;BME280;11783;50.350;6.576;2022-11-23T03:51:09;94557.97;;;5.28;100.00
23229;BME280;11783;50.350;6.576;2022-11-23T03:53:34;94561.97;;;5.35;100.00
23229;BME280;11783;50.350;6.576;2022-11-23T03:55:59;94561.88;;;5.25;100.00
23229;BME280;11783;50.350;6.576;2022-11-23T03:58:24;94546.88;;;5.26;100.00
23229;BME280;11783;50.350;6.576;2022-11-23T04:00:50;94563.25;;;5.33;100.00
23229;BME280;11783;50.350;6.576;2022-11-23T04:03:15;94551.13;;;5.32;100.00
23229;BME280;11783;50.350;6.576;2022-11-23T04:05:40;94550.09;;;5.33;100.00
23229;BME280;11783;50.350;6.576;2022-11-23T04:08:06;94556.41;;;5.32;100.00
23229;BME280;11783;50.350;6.576;2022-11-23T04:10:31;94551.59;;;5.24;100.00
23229;BME280;11783;50.350;6.576;2022-11-23T04:12:56;94556.91;;;5.29;100.00
23229;BME280;11783;50.350;6.576;2022-11-23T04:15:22;94561.38;;;5.28;100.00
23229;BME280;11783;50.350;6.576;2022-11-23T04:17:47;94554.75;;;5.21;100.00
23229;BME280;11783;50.350;6.576;2022-11-23T04:20:13;94552.59;;;5.17;100.00
23229;BME280;11783;50.350;6.576;2022-11-23T04:22:38;94555.72;;;5.14;100.00
23229;BME280;11783;50.350;6.576;2022-11-23T04:25:04;94558.97;;;5.22;100.00
23229;BME280;11783;50.350;6.576;2022-11-23T04:27:29;94557.91;;;5.23;100.00
23229;BME280;11783;50.350;6.576;2022-11-23T04:29:54;94557.03;;;5.12;100.00
23229;BME280;11783;50.350;6.576;2022-11-23T04:32:20;94551.00;;;5.16;100.00
23229;BME280;11783;50.350;6.576;2022-11-23T04:34:45;94563.13;;;5.17;100.00
23229;BME280;11783;50.350;6.576;2022-11-23T04:37:10;94549.94;;;5.17;100.00
23229;BME280;11783;50.350;6.576;2022-11-23T04:39:36;94548.91;;;5.18;100.00
23229;BME280;11783;50.350;6.576;2022-11-23T04:42:01;94551.06;;;5.22;100.00
23229;BME280;11783;50.350;6.576;2022-11-23T04:44:26;94556.09;;;5.23;100.00
23229;BME280;11783;50.350;6.576;2022-11-23T04:46:51;94547.81;;;5.14;100.00
23229;BME280;11783;50.350;6.576;2022-11-23T04:49:17;94555.72;;;5.14;100.00
23229;BME280;11783;50.350;6.576;2022-11-23T04:51:42;94562.06;;;5.18;100.00
23229;BME280;11783;50.350;6.576;2022-11-23T04:54:08;94555.81;;;5.25;100.00
23229;BME280;11783;50.350;6.576;2022-11-23T04:56:33;94561.13;;;5.30;100.00
23229;BME280;11783;50.350;6.576;2022-11-23T04:58:58;94566.44;;;5.35;100.00
23229;BME280;11783;50.350;6.576;2022-11-23T05:01:24;94563.25;;;5.33;100.00
23229;BME280;11783;50.350;6.576;2022-11-23T05:03:49;94571.41;;;5.31;100.00
23229;BME280;11783;50.350;6.576;2022-11-23T05:06:14;94568.72;;;5.21;100.00
23229;BME280;11783;50.350;6.576;2022-11-23T05:08:41;94566.28;;;5.20;100.00
23229;BME280;11783;50.350;6.576;2022-11-23T05:11:07;94565.50;;;5.19;100.00
23229;BME280;11783;50.350;6.576;2022-11-23T05:13:32;94571.34;;;5.21;100.00
23229;BME280;11783;50.350;6.576;2022-11-23T05:15:57;94568.47;;;5.23;100.00
23229;BME280;11783;50.350;6.576;2022-11-23T05:18:22;94558.75;;;5.28;100.00
23229;BME280;11783;50.350;6.576;2022-11-23T05:20:48;94568.25;;;5.29;100.00
23229;BME280;11783;50.350;6.576;2022-11-23T05:23:13;94568.03;;;5.36;100.00
23229;BME280;11783;50.350;6.576;2022-11-23T05:25:39;94573.22;;;5.26;100.00
23229;BME280;11783;50.350;6.576;2022-11-23T05:28:04;94581.56;;;5.17;100.00
23229;BME280;11783;50.350;6.576;2022-11-23T05:30:30;94570.84;;;5.24;100.00
23229;BME280;11783;50.350;6.576;2022-11-23T05:33:02;94580.25;;;5.20;100.00
23229;BME280;11783;50.350;6.576;2022-11-23T05:35:28;94572.84;;;5.17;100.00
23229;BME280;11783;50.350;6.576;2022-11-23T05:37:53;94573.19;;;5.21;100.00
23229;BME280;11783;50.350;6.576;2022-11-23T05:40:19;94572.44;;;5.25;100.00
23229;BME280;11783;50.350;6.576;2022-11-23T05:42:44;94571.28;;;5.16;100.00
23229;BME280;11783;50.350;6.576;2022-11-23T05:45:09;94568.13;;;5.19;100.00
23229;BME280;11783;50.350;6.576;2022-11-23T05:47:35;94569.28;;;5.28;100.00
23229;BME280;11783;50.350;6.576;2022-11-23T05:50:00;94566.41;;;5.30;100.00
23229;BME280;11783;50.350;6.576;2022-11-23T05:52:26;94559.38;;;5.40;100.00
23229;BME280;11783;50.350;6.576;2022-11-23T05:54:51;94568.00;;;5.31;100.00
23229;BME280;11783;50.350;6.576;2022-11-23T05:57:16;94571.88;;;5.23;100.00
23229;BME280;11783;50.350;6.576;2022-11-23T05:59:42;94565.84;;;5.28;100.00
23229;BME280;11783;50.350;6.576;2022-11-23T06:02:08;94562.16;;;5.24;100.00
23229;BME280;11783;50.350;6.576;2022-11-23T06:04:33;94562.69;;;5.26;100.00
23229;BME280;11783;50.350;6.576;2022-11-23T06:06:58;94562.72;;;5.31;100.00
23229;BME280;11783;50.350;6.576;2022-11-23T06:09:26;94567.69;;;5.27;100.00
23229;BME280;11783;50.350;6.576;2022-11-23T06:11:51;94558.75;;;5.28;100.00
23229;BME280;11783;50.350;6.576;2022-11-23T06:14:17;94564.53;;;5.25;100.00
23229;BME280;11783;50.350;6.576;2022-11-23T06:16:42;94565.28;;;5.21;100.00
23229;BME280;11783;50.350;6.576;2022-11-23T06:19:07;94570.28;;;5.22;100.00
23229;BME280;11783;50.350;6.576;2022-11-23T06:21:32;94570.22;;;5.17;100.00
23229;BME280;11783;50.350;6.576;2022-11-23T06:23:58;94572.31;;;5.15;100.00
23229;BME280;11783;50.350;6.576;2022-11-23T06:26:24;94558.59;;;5.13;100.00
23229;BME280;11783;50.350;6.576;2022-11-23T06:28:49;94567.91;;;5.21;100.00
23229;BME280;11783;50.350;6.576;2022-11-23T06:31:15;94564.47;;;5.20;100.00
23229;BME280;11783;50.350;6.576;2022-11-23T06:33:40;94563.13;;;5.17;100.00
23229;BME280;11783;50.350;6.576;2022-11-23T06:36:06;94570.97;;;5.12;100.00
23229;BME280;11783;50.350;6.576;2022-11-23T06:38:31;94576.38;;;5.01;100.00
23229;BME280;11783;50.350;6.576;2022-11-23T06:40:58;94573.25;;;4.77;100.00
23229;BME280;11783;50.350;6.576;2022-11-23T06:43:24;94570.66;;;4.82;100.00
23229;BME280;11783;50.350;6.576;2022-11-23T06:45:49;94562.84;;;4.87;100.00
23229;BME280;11783;50.350;6.576;2022-11-23T06:48:14;94563.81;;;4.81;100.00
23229;BME280;11783;50.350;6.576;2022-11-23T06:50:40;94573.06;;;4.83;100.00
23229;BME280;11783;50.350;6.576;2022-11-23T06:53:05;94566.28;;;4.88;100.00
23229;BME280;11783;50.350;6.576;2022-11-23T06:55:30;94572.06;;;4.90;100.00
23229;BME280;11783;50.350;6.576;2022-11-23T06:57:56;94567.56;;;4.85;100.00
23229;BME280;11783;50.350;6.576;2022-11-23T07:00:23;94563.56;;;4.82;100.00
23229;BME280;11783;50.350;6.576;2022-11-23T07:02:52;94564.31;;;4.78;100.00
23229;BME280;11783;50.350;6.576;2022-11-23T07:05:18;94562.38;;;4.68;100.00
23229;BME280;11783;50.350;6.576;2022-11-23T07:07:43;94573.19;;;4.72;100.00
23229;BME280;11783;50.350;6.576;2022-11-23T07:10:08;94569.81;;;4.76;100.00
23229;BME280;11783;50.350;6.576;2022-11-23T07:12:34;94575.94;;;4.82;100.00
23229;BME280;11783;50.350;6.576;2022-11-23T07:14:59;94569.03;;;4.76;100.00
23229;BME280;11783;50.350;6.576;2022-11-23T07:17:25;94571.63;;;4.71;100.00
23229;BME280;11783;50.350;6.576;2022-11-23T07:19:50;94588.19;;;4.71;100.00
23229;BME280;11783;50.350;6.576;2022-11-23T07:22:15;94572.28;;;4.61;100.00
23229;BME280;11783;50.350;6.576;2022-11-23T07:24:41;94582.81;;;4.61;100.00
23229;BME280;11783;50.350;6.576;2022-11-23T07:27:06;94580.66;;;4.58;100.00
23229;BME280;11783;50.350;6.576;2022-11-23T07:29:31;94583.94;;;4.65;100.00
23229;BME280;11783;50.350;6.576;2022-11-23T07:31:57;94572.91;;;4.68;100.00
23229;BME280;11783;50.350;6.576;2022-11-23T07:34:22;94592.03;;;4.64;100.00
23229;BME280;11783;50.350;6.576;2022-11-23T07:36:47;94588.69;;;4.68;100.00
23229;BME280;11783;50.350;6.576;2022-11-23T07:39:12;94598.09;;;4.64;100.00
23229;BME280;11783;50.350;6.576;2022-11-23T07:41:38;94596.22;;;4.60;100.00
23229;BME280;11783;50.350;6.576;2022-11-23T07:44:04;94603.06;;;4.61;100.00
23229;BME280;11783;50.350;6.576;2022-11-23T07:46:29;94596.94;;;4.55;100.00
23229;BME280;11783;50.350;6.576;2022-11-23T07:48:54;94606.72;;;4.60;100.00
23229;BME280;11783;50.350;6.576;2022-11-23T07:51:23;94613.84;;;4.59;100.00
23229;BME280;11783;50.350;6.576;2022-11-23T07:53:49;94617.31;;;4.65;100.00
23229;BME280;11783;50.350;6.576;2022-11-23T07:56:14;94617.25;;;4.60;100.00
23229;BME280;11783;50.350;6.576;2022-11-23T07:58:39;94612.63;;;4.67;100.00
23229;BME280;11783;50.350;6.576;2022-11-23T08:01:04;94609.59;;;4.58;100.00
23229;BME280;11783;50.350;6.576;2022-11-23T08:03:30;94610.72;;;4.62;100.00
23229;BME280;11783;50.350;6.576;2022-11-23T08:05:55;94628.41;;;4.67;100.00
23229;BME280;11783;50.350;6.576;2022-11-23T08:08:20;94622.81;;;4.63;100.00
23229;BME280;11783;50.350;6.576;2022-11-23T08:10:46;94627.13;;;4.69;100.00
23229;BME280;11783;50.350;6.576;2022-11-23T08:13:11;94629.44;;;4.66;100.00
23229;BME280;11783;50.350;6.576;2022-11-23T08:15:36;94616.09;;;4.72;100.00
23229;BME280;11783;50.350;6.576;2022-11-23T08:18:03;94621.91;;;4.74;100.00
23229;BME280;11783;50.350;6.576;2022-11-23T08:20:29;94622.22;;;4.78;100.00
23229;BME280;11783;50.350;6.576;2022-11-23T08:22:54;94629.25;;;4.72;100.00
23229;BME280;11783;50.350;6.576;2022-11-23T08:25:21;94624.66;;;4.63;100.00
23229;BME280;11783;50.350;6.576;2022-11-23T08:27:46;94618.94;;;4.66;100.00
23229;BME280;11783;50.350;6.576;2022-11-23T08:30:12;94626.31;;;4.69;100.00
23229;BME280;11783;50.350;6.576;2022-11-23T08:32:37;94617.44;;;4.75;100.00
23229;BME280;11783;50.350;6.576;2022-11-23T08:35:03;94628.22;;;4.73;100.00
23229;BME280;11783;50.350;6.576;2022-11-23T08:37:28;94622.72;;;4.75;100.00
23229;BME280;11783;50.350;6.576;2022-11-23T08:39:54;94631.78;;;4.84;100.00
23229;BME280;11783;50.350;6.576;2022-11-23T08:42:19;94623.44;;;4.92;100.00
23229;BME280;11783;50.350;6.576;2022-11-23T08:44:44;94630.53;;;4.92;100.00
23229;BME280;11783;50.350;6.576;2022-11-23T08:47:09;94629.38;;;4.82;100.00
23229;BME280;11783;50.350;6.576;2022-11-23T08:49:35;94626.81;;;4.88;100.00
23229;BME280;11783;50.350;6.576;2022-11-23T08:52:00;94643.31;;;4.83;100.00
23229;BME280;11783;50.350;6.576;2022-11-23T08:54:25;94644.00;;;4.73;100.00
23229;BME280;11783;50.350;6.576;2022-11-23T08:56:51;94645.66;;;4.79;100.00
23229;BME280;11783;50.350;6.576;2022-11-23T08:59:17;94641.81;;;4.87;100.00
23229;BME280;11783;50.350;6.576;2022-11-23T09:01:43;94643.31;;;4.83;100.00
23229;BME280;11783;50.350;6.576;2022-11-23T09:04:08;94642.22;;;4.79;100.00
23229;BME280;11783;50.350;6.576;2022-11-23T09:06:34;94647.44;;;4.74;100.00
23229;BME280;11783;50.350;6.576;2022-11-23T09:09:00;94650.66;;;4.81;100.00
23229;BME280;11783;50.350;6.576;2022-11-23T09:11:26;94649.53;;;4.72;100.00
23229;BME280;11783;50.350;6.576;2022-11-23T09:13:51;94649.31;;;4.56;100.00
23229;BME280;11783;50.350;6.576;2022-11-23T09:16:17;94650.41;;;4.61;100.00
23229;BME280;11783;50.350;6.576;2022-11-23T09:18:42;94649.94;;;4.64;100.00
23229;BME280;11783;50.350;6.576;2022-11-23T09:21:08;94656.78;;;4.65;100.00
23229;BME280;11783;50.350;6.576;2022-11-23T09:23:35;94645.41;;;4.59;100.00
23229;BME280;11783;50.350;6.576;2022-11-23T09:26:01;94648.66;;;4.66;100.00
23229;BME280;11783;50.350;6.576;2022-11-23T09:28:27;94655.03;;;4.70;100.00
23229;BME280;11783;50.350;6.576;2022-11-23T09:30:54;94657.47;;;4.55;100.00
23229;BME280;11783;50.350;6.576;2022-11-23T09:33:21;94657.47;;;4.55;100.00
23229;BME280;11783;50.350;6.576;2022-11-23T09:35:47;94652.75;;;4.57;100.00
23229;BME280;11783;50.350;6.576;2022-11-23T09:38:12;94648.78;;;4.54;100.00
23229;BME280;11783;50.350;6.576;2022-11-23T09:40:39;94647.00;;;4.60;100.00
23229;BME280;11783;50.350;6.576;2022-11-23T09:44:07;94639.47;;;4.69;100.00
23229;BME280;11783;50.350;6.576;2022-11-23T09:51:22;94625.88;;;4.77;100.00
23229;BME280;11783;50.350;6.576;2022-11-23T09:54:01;94623.56;;;4.80;100.00
23229;BME280;11783;50.350;6.576;2022-11-23T09:56:31;94621.34;;;4.94;100.00
23229;BME280;11783;50.350;6.576;2022-11-23T09:59:00;94625.56;;;4.95;100.00
23229;BME280;11783;50.350;6.576;2022-11-23T10:01:26;94613.69;;;4.93;100.00
23229;BME280;11783;50.350;6.576;2022-11-23T10:03:52;94609.88;;;5.05;100.00
23229;BME280;11783;50.350;6.576;2022-11-23T10:06:29;94612.41;;;4.95;100.00
23229;BME280;11783;50.350;6.576;2022-11-23T10:12:04;94605.00;;;4.92;100.00
23229;BME280;11783;50.350;6.576;2022-11-23T10:14:34;94595.09;;;4.77;100.00
23229;BME280;11783;50.350;6.576;2022-11-23T10:22:47;94585.50;;;4.88;100.00
23229;BME280;11783;50.350;6.576;2022-11-23T10:25:21;94573.97;;;4.94;100.00
23229;BME280;11783;50.350;6.576;2022-11-23T10:27:49;94584.75;;;4.93;100.00
23229;BME280;11783;50.350;6.576;2022-11-23T10:30:16;94581.91;;;4.99;100.00
23229;BME280;11783;50.350;6.576;2022-11-23T10:35:27;94580.69;;;5.07;100.00
23229;BME280;11783;50.350;6.576;2022-11-23T10:38:11;94585.88;;;5.02;100.00
23229;BME280;11783;50.350;6.576;2022-11-23T10:40:40;94575.13;;;5.03;100.00
23229;BME280;11783;50.350;6.576;2022-11-23T10:43:21;94568.06;;;5.09;100.00
23229;BME280;11783;50.350;6.576;2022-11-23T10:45:48;94568.38;;;5.17;100.00
23229;BME280;11783;50.350;6.576;2022-11-23T10:48:33;94571.34;;;5.21;100.00
23229;BME280;11783;50.350;6.576;2022-11-23T10:51:15;94554.75;;;5.21;100.00
23229;BME280;11783;50.350;6.576;2022-11-23T10:53:51;94568.63;;;5.16;100.00
23229;BME280;11783;50.350;6.576;2022-11-23T10:56:18;94562.78;;;5.09;100.00
23229;BME280;11783;50.350;6.576;2022-11-23T10:58:45;94556.78;;;5.13;100.00
23229;BME280;11783;50.350;6.576;2022-11-23T11:01:16;94553.13;;;5.20;100.00
23229;BME280;11783;50.350;6.576;2022-11-23T11:03:42;94557.41;;;5.26;100.00
23229;BME280;11783;50.350;6.576;2022-11-23T11:06:08;94545.09;;;5.36;100.00
23229;BME280;11783;50.350;6.576;2022-11-23T11:08:44;94536.22;;;5.42;100.00
23229;BME280;11783;50.350;6.576;2022-11-23T11:13:50;94542.19;;;5.33;100.00
23229;BME280;11783;50.350;6.576;2022-11-23T11:16:26;94545.09;;;5.36;100.00
23229;BME280;11783;50.350;6.576;2022-11-23T11:18:55;94540.59;;;5.32;100.00
23229;BME280;11783;50.350;6.576;2022-11-23T11:21:34;94538.06;;;5.42;100.00
23229;BME280;11783;50.350;6.576;2022-11-23T11:24:11;94539.59;;;5.38;100.00
23229;BME280;11783;50.350;6.576;2022-11-23T11:26:47;94533.06;;;5.45;100.00
23229;BME280;11783;50.350;6.576;2022-11-23T11:29:30;94532.88;;;5.57;100.00
23229;BME280;11783;50.350;6.576;2022-11-23T11:32:03;94532.16;;;5.67;100.00
23229;BME280;11783;50.350;6.576;2022-11-23T11:34:51;94530.03;;;5.59;100.00
23229;BME280;11783;50.350;6.576;2022-11-23T11:37:37;94533.19;;;5.61;100.00
23229;BME280;11783;50.350;6.576;2022-11-23T11:40:33;94535.13;;;5.75;100.00
23229;BME280;11783;50.350;6.576;2022-11-23T11:43:20;94533.00;;;5.72;100.00
23229;BME280;11783;50.350;6.576;2022-11-23T11:45:55;94529.28;;;5.68;100.00
23229;BME280;11783;50.350;6.576;2022-11-23T11:48:44;94527.94;;;5.66;100.00
23229;BME280;11783;50.350;6.576;2022-11-23T11:51:32;94526.63;;;5.63;100.00
23229;BME280;11783;50.350;6.576;2022-11-23T11:56:41;94527.84;;;5.51;100.00
23229;BME280;11783;50.350;6.576;2022-11-23T11:59:36;94532.41;;;5.60;100.00
23229;BME280;11783;50.350;6.576;2022-11-23T12:02:23;94526.59;;;5.58;100.00
23229;BME280;11783;50.350;6.576;2022-11-23T12:10:35;94526.38;;;5.70;100.00
23229;BME280;11783;50.350;6.576;2022-11-23T12:13:03;94509.50;;;5.66;100.00
23229;BME280;11783;50.350;6.576;2022-11-23T12:15:36;94522.72;;;5.71;100.00
23229;BME280;11783;50.350;6.576;2022-11-23T12:21:04;94495.13;;;5.84;100.00
23229;BME280;11783;50.350;6.576;2022-11-23T12:26:23;94462.78;;;5.98;100.00
23229;BME280;11783;50.350;6.576;2022-11-23T12:28:55;94474.13;;;5.99;100.00
23229;BME280;11783;50.350;6.576;2022-11-23T12:37:09;94451.53;;;6.18;100.00
23229;BME280;11783;50.350;6.576;2022-11-23T12:42:48;94451.59;;;6.33;100.00
23229;BME280;11783;50.350;6.576;2022-11-23T12:51:18;94449.16;;;6.17;100.00
23229;BME280;11783;50.350;6.576;2022-11-23T12:54:11;94444.94;;;6.26;100.00
23229;BME280;11783;50.350;6.576;2022-11-23T12:59:34;94423.66;;;6.58;100.00
23229;BME280;11783;50.350;6.576;2022-11-23T13:02:10;94412.59;;;6.71;100.00
23229;BME280;11783;50.350;6.576;2022-11-23T13:07:49;94427.41;;;6.92;100.00
23229;BME280;11783;50.350;6.576;2022-11-23T13:10:43;94423.44;;;6.90;100.00
23229;BME280;11783;50.350;6.576;2022-11-23T13:13:24;94426.06;;;6.95;100.00
23229;BME280;11783;50.350;6.576;2022-11-23T13:18:45;94420.25;;;7.13;100.00
23229;BME280;11783;50.350;6.576;2022-11-23T13:23:59;94416.81;;;7.23;100.00
23229;BME280;11783;50.350;6.576;2022-11-23T13:26:26;94422.88;;;7.23;100.00
23229;BME280;11783;50.350;6.576;2022-11-23T13:28:58;94426.06;;;7.00;100.00
23229;BME280;11783;50.350;6.576;2022-11-23T13:31:30;94422.13;;;6.92;100.00
23229;BME280;11783;50.350;6.576;2022-11-23T13:33:58;94420.25;;;6.73;100.00
23229;BME280;11783;50.350;6.576;2022-11-23T13:38:55;94419.72;;;6.71;100.00
23229;BME280;11783;50.350;6.576;2022-11-23T13:44:11;94432.63;;;6.62;100.00
23229;BME280;11783;50.350;6.576;2022-11-23T13:46:36;94420.72;;;6.44;100.00
23229;BME280;11783;50.350;6.576;2022-11-23T13:49:02;94403.84;;;6.50;100.00
23229;BME280;11783;50.350;6.576;2022-11-23T13:51:31;94417.34;;;6.54;100.00
23229;BME280;11783;50.350;6.576;2022-11-23T13:54:02;94421.56;;;6.55;100.00
23229;BME280;11783;50.350;6.576;2022-11-23T13:56:35;94409.16;;;6.60;100.00
23229;BME280;11783;50.350;6.576;2022-11-23T14:02:00;94405.97;;;6.63;100.00
23229;BME280;11783;50.350;6.576;2022-11-23T14:04:29;94401.75;;;6.62;100.00
23229;BME280;11783;50.350;6.576;2022-11-23T14:09:43;94390.41;;;6.62;100.00
23229;BME280;11783;50.350;6.576;2022-11-23T14:23:04;94403.34;;;6.63;100.00
23229;BME280;11783;50.350;6.576;2022-11-23T14:31:48;94415.72;;;6.48;100.00